Time;durP1;ratioP1;P1;durP2;ratioP2;P2;SDS_P1;SDS_P2;PMS_P1;PMS_P2;Temp;Humidity;BMP_temperature;BMP_pressure;BME280_temperature;BME280_humidity;BME280_pressure;Samples;Min_cycle;Max_cycle;Signal;HPM_P1;HPM_P2
2021/06/11 00:00:45;;;;;;;8.50;5.60;;;19.60;77.60;;;;;;4937072;29;20034;-75
2021/06/11 00:03:11;;;;;;;6.97;5.20;;;19.50;77.80;;;;;;4953400;29;20086;-75
2021/06/11 00:05:37;;;;;;;7.50;4.80;;;19.50;78.10;;;;;;4957431;28;20020;-74
2021/06/11 00:08:03;;;;;;;8.60;5.45;;;19.50;78.10;;;;;;4957587;29;20102;-74
2021/06/11 00:10:29;;;;;;;8.23;5.93;;;19.40;78.90;;;;;;4954570;28;20027;-75
2021/06/11 00:12:55;;;;;;;9.63;5.68;;;19.40;79.30;;;;;;4936807;29;20019;-75
2021/06/11 00:15:21;;;;;;;8.45;6.15;;;19.40;78.70;;;;;;4936855;29;20020;-74
2021/06/11 00:17:47;;;;;;;9.00;6.25;;;19.40;78.80;;;;;;4954190;28;20031;-75
2021/06/11 00:20:12;;;;;;;8.85;6.20;;;19.30;79.00;;;;;;4953780;28;20171;-75
2021/06/11 00:22:38;;;;;;;9.00;6.35;;;19.30;79.30;;;;;;4954619;29;20035;-75
2021/06/11 00:25:09;;;;;;;9.25;6.45;;;19.30;79.40;;;;;;4954559;29;20023;-75
2021/06/11 00:27:34;;;;;;;8.45;6.45;;;19.20;79.60;;;;;;4954487;29;20043;-75
2021/06/11 00:30:00;;;;;;;9.73;6.35;;;19.20;79.80;;;;;;4951628;29;20090;-73
2021/06/11 00:32:26;;;;;;;10.60;6.50;;;19.20;80.00;;;;;;4968524;29;20033;-75
2021/06/11 00:34:52;;;;;;;9.05;6.32;;;19.20;80.00;;;;;;4966918;28;20031;-74
2021/06/11 00:37:17;;;;;;;11.80;7.25;;;19.10;80.20;;;;;;4970876;28;20050;-74
2021/06/11 00:39:43;;;;;;;11.60;8.15;;;19.10;80.60;;;;;;4954731;28;20048;-75
2021/06/11 00:42:08;;;;;;;9.45;7.50;;;19.10;80.90;;;;;;4954762;28;20365;-74
2021/06/11 00:44:34;;;;;;;9.45;7.40;;;19.10;81.00;;;;;;4939990;29;20074;-75
2021/06/11 00:47:00;;;;;;;9.60;7.38;;;19.00;81.10;;;;;;4956967;29;20081;-75
2021/06/11 00:49:25;;;;;;;10.82;7.40;;;19.00;81.40;;;;;;4957250;29;20027;-74
2021/06/11 00:51:51;;;;;;;10.45;8.02;;;19.00;81.60;;;;;;4939959;29;20031;-74
2021/06/11 00:54:17;;;;;;;12.88;7.90;;;19.00;81.80;;;;;;4939663;29;20086;-74
2021/06/11 00:56:42;;;;;;;11.95;7.95;;;19.00;81.90;;;;;;4957132;29;20113;-75
2021/06/11 00:59:09;;;;;;;12.40;8.05;;;18.90;81.90;;;;;;4957043;29;20506;-75
2021/06/11 01:01:34;;;;;;;9.63;7.30;;;18.90;82.10;;;;;;4956923;29;20484;-75
2021/06/11 01:04:00;;;;;;;11.32;7.47;;;18.90;82.10;;;;;;4939900;29;20034;-73
2021/06/11 01:06:26;;;;;;;11.63;8.00;;;18.90;82.20;;;;;;4957185;29;20031;-74
2021/06/11 01:08:53;;;;;;;14.68;7.25;;;18.90;82.40;;;;;;4956799;28;20485;-75
2021/06/11 01:11:20;;;;;;;10.55;8.20;;;18.90;82.40;;;;;;4939572;29;20019;-74
2021/06/11 01:13:45;;;;;;;9.98;6.75;;;18.90;82.60;;;;;;4956816;28;20024;-74
2021/06/11 01:16:11;;;;;;;10.73;7.43;;;18.90;82.60;;;;;;4939411;29;20047;-74
2021/06/11 01:18:37;;;;;;;11.45;7.35;;;18.80;82.70;;;;;;4955694;29;20027;-74
2021/06/11 01:21:03;;;;;;;9.90;7.45;;;18.80;82.60;;;;;;4956890;29;20106;-74
2021/06/11 01:24:13;;;;;;;11.25;7.32;;;18.80;82.60;;;;;;4939622;29;20028;-74
2021/06/11 01:26:43;;;;;;;9.25;7.32;;;18.80;82.50;;;;;;4956925;29;20038;-74
2021/06/11 01:29:16;;;;;;;10.68;7.35;;;18.80;82.80;;;;;;4957064;28;20078;-76
2021/06/11 01:31:46;;;;;;;9.80;7.28;;;18.80;82.90;;;;;;4949758;29;20051;-75
2021/06/11 01:34:21;;;;;;;11.65;8.02;;;18.80;83.00;;;;;;4966431;29;20090;-75
2021/06/11 01:37:02;;;;;;;13.55;7.78;;;18.70;83.10;;;;;;4955433;29;20063;-75
2021/06/11 01:39:28;;;;;;;;;;;18.70;83.10;;;;;;4956868;29;20551;-75
2021/06/11 01:41:54;;;;;;;10.90;7.57;;;18.70;83.20;;;;;;4954969;29;20283;-75
2021/06/11 01:44:21;;;;;;;12.57;7.78;;;18.70;83.20;;;;;;4954987;29;20173;-74
2021/06/11 01:46:49;;;;;;;10.70;7.43;;;18.60;83.10;;;;;;4956257;29;20107;-74
2021/06/11 01:49:15;;;;;;;11.25;8.10;;;18.60;83.20;;;;;;4956265;29;20065;-74
2021/06/11 01:51:42;;;;;;;10.23;7.93;;;18.60;83.30;;;;;;4939759;29;20456;-75
2021/06/11 01:54:11;;;;;;;11.10;7.43;;;18.60;83.40;;;;;;4940766;29;20083;-75
2021/06/11 01:56:37;;;;;;;11.00;7.30;;;18.60;83.30;;;;;;4962490;29;20035;-74
2021/06/11 01:59:04;;;;;;;10.82;7.32;;;18.60;83.40;;;;;;4945135;29;20639;-75
2021/06/11 02:01:33;;;;;;;10.18;7.38;;;18.60;83.60;;;;;;4959561;29;20030;-75
2021/06/11 02:03:59;;;;;;;9.77;7.20;;;18.60;83.50;;;;;;4938855;29;20106;-75
2021/06/11 02:06:26;;;;;;;11.85;8.38;;;18.60;83.50;;;;;;4955824;29;20030;-74
2021/06/11 02:08:53;;;;;;;11.93;7.25;;;18.50;83.50;;;;;;4954596;28;20027;-74
2021/06/11 02:11:21;;;;;;;11.07;8.02;;;18.50;83.50;;;;;;4955562;29;20469;-74
2021/06/11 02:13:49;;;;;;;12.40;8.75;;;18.50;83.50;;;;;;4955521;29;20087;-74
2021/06/11 02:16:16;;;;;;;12.15;9.32;;;18.50;83.50;;;;;;4955365;29;20035;-74
2021/06/11 02:18:43;;;;;;;11.00;8.85;;;18.50;83.50;;;;;;4956086;29;20038;-75
2021/06/11 02:21:10;;;;;;;15.27;9.20;;;18.50;83.60;;;;;;4938097;29;20035;-75
2021/06/11 02:23:36;;;;;;;14.00;9.65;;;18.50;83.90;;;;;;4955571;29;20024;-76
2021/06/11 02:26:03;;;;;;;14.60;10.60;;;18.50;84.00;;;;;;4955268;29;20110;-75
2021/06/11 02:28:30;;;;;;;12.38;9.60;;;18.40;84.00;;;;;;4955192;29;20027;-74
2021/06/11 02:30:58;;;;;;;12.98;9.77;;;18.40;84.10;;;;;;4957562;29;20023;-75
2021/06/11 02:33:25;;;;;;;12.45;9.95;;;18.30;84.00;;;;;;4971807;29;20178;-74
2021/06/11 02:35:50;;;;;;;11.77;9.35;;;18.30;84.30;;;;;;4957147;29;20031;-73
2021/06/11 02:38:16;;;;;;;12.85;8.75;;;18.30;84.30;;;;;;4974566;29;20091;-74
2021/06/11 02:40:42;;;;;;;14.25;9.30;;;18.30;84.30;;;;;;4959345;29;20027;-74
2021/06/11 02:43:11;;;;;;;13.32;9.75;;;18.30;84.50;;;;;;4955379;29;20445;-75
2021/06/11 02:45:48;;;;;;;18.85;12.38;;;18.30;84.50;;;;;;4955892;29;20031;-74
2021/06/11 02:48:32;;;;;;;18.33;14.60;;;18.20;85.40;;;;;;4938702;29;20073;-75
2021/06/11 02:51:19;;;;;;;19.48;16.15;;;18.20;85.10;;;;;;4955846;29;20020;-75
2021/06/11 02:53:45;;;;;;;22.95;16.98;;;18.20;85.30;;;;;;4955515;29;20030;-75
2021/06/11 02:56:21;;;;;;;21.70;17.52;;;18.20;85.40;;;;;;4955679;29;20106;-75
2021/06/11 02:58:52;;;;;;;22.83;18.13;;;18.20;85.50;;;;;;4956334;29;20134;-75
2021/06/11 03:01:19;;;;;;;30.23;19.73;;;18.10;85.60;;;;;;4938240;29;20027;-74
2021/06/11 03:03:47;;;;;;;22.85;18.95;;;18.10;85.60;;;;;;4938313;28;20460;-73
2021/06/11 03:06:16;;;;;;;23.83;18.88;;;18.10;85.70;;;;;;4954868;29;20023;-75
2021/06/11 03:08:44;;;;;;;22.08;18.15;;;18.10;85.80;;;;;;4955986;29;20108;-75
2021/06/11 03:11:13;;;;;;;23.10;18.63;;;18.10;85.80;;;;;;4938103;29;20070;-74
2021/06/11 03:13:41;;;;;;;26.20;19.43;;;18.10;85.80;;;;;;4937894;29;20424;-74
2021/06/11 03:16:07;;;;;;;24.40;19.88;;;18.10;85.70;;;;;;4937697;29;20019;-74
2021/06/11 03:18:52;;;;;;;21.52;17.55;;;18.00;85.70;;;;;;4955509;29;20035;-75
2021/06/11 03:21:34;;;;;;;23.40;19.23;;;18.00;85.80;;;;;;4955082;29;20091;-75
2021/06/11 03:24:09;;;;;;;23.75;19.10;;;18.00;85.80;;;;;;4955346;29;20046;-74
2021/06/11 03:27:01;;;;;;;21.92;18.23;;;18.00;85.80;;;;;;4955392;29;20498;-75
2021/06/11 03:29:40;;;;;;;25.05;18.65;;;18.00;85.90;;;;;;4955462;29;20031;-74
2021/06/11 03:32:11;;;;;;;26.10;18.95;;;17.90;85.80;;;;;;4954961;29;20023;-75
2021/06/11 03:34:43;;;;;;;25.25;19.08;;;17.90;85.90;;;;;;4939343;29;20100;-74
2021/06/11 03:37:15;;;;;;;26.05;20.58;;;17.90;85.90;;;;;;4953219;29;20027;-74
2021/06/11 03:39:48;;;;;;;23.95;19.42;;;17.90;86.00;;;;;;4955162;29;20066;-75
2021/06/11 03:42:14;;;;;;;25.17;18.85;;;17.90;86.30;;;;;;4937531;29;20136;-73
2021/06/11 03:44:47;;;;;;;20.83;17.50;;;17.90;87.00;;;;;;4955652;29;20102;-74
2021/06/11 03:47:15;;;;;;;23.58;17.40;;;17.90;86.30;;;;;;4955893;29;20063;-74
2021/06/11 03:49:43;;;;;;;25.88;19.85;;;17.90;86.20;;;;;;4939108;29;20031;-74
2021/06/11 03:52:11;;;;;;;24.40;18.70;;;17.80;86.30;;;;;;4954705;29;20034;-75
2021/06/11 03:54:39;;;;;;;27.25;19.40;;;17.90;86.40;;;;;;4953993;29;20114;-75
2021/06/11 03:57:07;;;;;;;27.08;19.52;;;17.90;86.50;;;;;;4936628;29;20070;-74
2021/06/11 03:59:34;;;;;;;24.20;20.42;;;17.90;86.50;;;;;;4936760;29;20078;-74
2021/06/11 04:02:02;;;;;;;24.88;18.75;;;17.90;86.70;;;;;;4954276;29;20035;-74
2021/06/11 04:04:27;;;;;;;25.92;18.98;;;17.90;86.80;;;;;;4954502;29;20034;-74
2021/06/11 04:07:03;;;;;;;25.08;18.00;;;17.90;86.70;;;;;;4957171;29;20035;-73
2021/06/11 04:09:37;;;;;;;23.70;19.17;;;17.90;86.70;;;;;;4937410;29;20384;-74
2021/06/11 04:12:07;;;;;;;23.90;18.75;;;17.90;86.60;;;;;;4939846;29;20031;-75
2021/06/11 04:14:46;;;;;;;27.50;19.27;;;17.90;86.70;;;;;;4955503;28;20115;-75
2021/06/11 04:17:16;;;;;;;30.15;20.58;;;17.90;86.80;;;;;;4957430;28;20086;-76
2021/06/11 04:19:48;;;;;;;26.42;20.40;;;17.90;86.90;;;;;;4957931;29;20035;-75
2021/06/11 04:22:15;;;;;;;25.30;21.17;;;17.90;86.90;;;;;;4958119;29;20114;-75
2021/06/11 04:24:45;;;;;;;27.70;21.42;;;18.00;87.10;;;;;;4958744;29;20063;-75
2021/06/11 04:27:11;;;;;;;28.55;22.30;;;18.00;86.90;;;;;;4958604;29;20031;-75
2021/06/11 04:29:37;;;;;;;27.40;21.35;;;18.00;86.90;;;;;;4942551;29;20024;-74
2021/06/11 04:32:03;;;;;;;28.08;21.23;;;18.10;86.90;;;;;;4949106;29;20023;-75
2021/06/11 04:34:29;;;;;;;27.35;22.35;;;18.10;86.90;;;;;;4951886;29;20476;-75
2021/06/11 04:36:55;;;;;;;29.85;23.33;;;18.10;86.90;;;;;;4961018;29;20027;-76
2021/06/11 04:39:21;;;;;;;29.25;22.05;;;18.10;86.80;;;;;;4957332;29;20027;-76
2021/06/11 04:41:46;;;;;;;27.17;21.65;;;18.20;86.70;;;;;;4944971;29;20553;-75
2021/06/11 04:44:12;;;;;;;29.08;21.95;;;18.30;86.60;;;;;;4941712;29;20026;-76
2021/06/11 04:46:40;;;;;;;27.08;22.60;;;18.30;86.50;;;;;;4957540;29;20123;-76
2021/06/11 04:49:06;;;;;;;27.17;21.08;;;18.30;86.30;;;;;;4940338;29;20117;-74
2021/06/11 04:51:32;;;;;;;26.02;21.40;;;18.30;86.20;;;;;;4939861;29;20092;-76
2021/06/11 04:53:58;;;;;;;27.92;21.98;;;18.30;86.10;;;;;;4940478;29;20023;-76
2021/06/11 04:56:24;;;;;;;28.45;21.52;;;18.40;86.20;;;;;;4957238;29;20034;-76
2021/06/11 04:58:51;;;;;;;26.88;21.83;;;18.50;86.00;;;;;;4939534;29;20047;-75
2021/06/11 05:01:17;;;;;;;28.00;22.55;;;18.50;86.00;;;;;;4955763;29;20110;-75
2021/06/11 05:03:43;;;;;;;27.55;21.90;;;18.50;85.80;;;;;;4940006;29;20096;-75
2021/06/11 05:06:08;;;;;;;26.38;18.42;;;18.60;85.70;;;;;;4956961;29;20474;-75
2021/06/11 05:08:35;;;;;;;25.02;19.95;;;18.60;85.30;;;;;;4957248;29;20034;-75
2021/06/11 05:11:02;;;;;;;30.23;24.00;;;18.70;85.30;;;;;;4940020;29;20115;-76
2021/06/11 05:13:28;;;;;;;26.88;21.45;;;18.70;85.40;;;;;;4939558;29;20031;-76
2021/06/11 05:15:53;;;;;;;30.85;20.75;;;18.80;85.30;;;;;;4956912;29;20047;-76
2021/06/11 05:18:19;;;;;;;29.58;21.05;;;18.90;85.10;;;;;;4956226;29;20082;-75
2021/06/11 05:20:45;;;;;;;28.52;22.50;;;18.90;85.20;;;;;;4957122;29;20460;-76
2021/06/11 05:23:10;;;;;;;27.95;21.55;;;18.90;85.30;;;;;;4940048;29;20034;-75
2021/06/11 05:25:37;;;;;;;25.27;22.05;;;18.90;85.20;;;;;;4957241;29;20034;-76
2021/06/11 05:28:03;;;;;;;28.50;23.38;;;19.00;85.30;;;;;;4957016;28;20031;-76
2021/06/11 05:30:30;;;;;;;29.92;22.20;;;19.00;85.50;;;;;;4958426;29;20034;-76
2021/06/11 05:32:55;;;;;;;32.95;23.95;;;19.00;85.30;;;;;;4960298;29;20531;-76
2021/06/11 05:35:21;;;;;;;30.48;21.08;;;19.10;85.50;;;;;;4941296;29;20031;-75
2021/06/11 05:37:48;;;;;;;28.98;23.52;;;19.10;84.90;;;;;;4941164;29;20042;-75
2021/06/11 05:40:15;;;;;;;27.58;22.65;;;19.10;85.10;;;;;;4944117;29;20027;-77
2021/06/11 05:42:40;;;;;;;24.75;19.45;;;19.10;85.30;;;;;;4967179;29;20110;-76
2021/06/11 05:45:07;;;;;;;32.83;24.42;;;19.20;84.80;;;;;;4940548;29;20046;-76
2021/06/11 05:47:36;;;;;;;27.55;22.45;;;19.20;85.00;;;;;;4939042;29;20034;-76
2021/06/11 05:50:03;;;;;;;29.42;21.73;;;19.30;84.80;;;;;;4939176;29;20019;-76
2021/06/11 05:52:28;;;;;;;25.90;19.38;;;19.40;84.30;;;;;;4938814;29;20031;-76
2021/06/11 05:54:54;;;;;;;22.67;16.30;;;19.50;84.20;;;;;;4939003;29;20030;-76
2021/06/11 05:57:19;;;;;;;21.40;16.45;;;19.50;83.80;;;;;;4936511;29;20035;-76
2021/06/11 05:59:45;;;;;;;28.58;19.55;;;19.60;83.50;;;;;;4954033;29;20023;-75
2021/06/11 06:02:11;;;;;;;27.00;19.73;;;19.70;82.80;;;;;;4954947;29;20114;-76
2021/06/11 06:04:36;;;;;;;24.40;17.77;;;19.80;82.30;;;;;;4955001;29;20050;-77
2021/06/11 06:07:02;;;;;;;23.23;19.00;;;19.80;82.10;;;;;;4937289;29;20469;-76
2021/06/11 06:09:27;;;;;;;20.55;16.40;;;19.80;82.20;;;;;;4937541;29;20012;-75
2021/06/11 06:11:53;;;;;;;23.38;17.20;;;19.80;82.20;;;;;;4938125;29;20477;-75
2021/06/11 06:14:18;;;;;;;25.55;16.98;;;19.90;81.80;;;;;;4955884;29;20063;-74
2021/06/11 06:16:44;;;;;;;18.55;15.35;;;20.00;82.30;;;;;;4939618;29;20035;-76
2021/06/11 06:19:10;;;;;;;24.15;18.23;;;20.10;81.20;;;;;;4939595;29;20028;-74
2021/06/11 06:21:35;;;;;;;21.58;16.67;;;20.20;80.90;;;;;;4955486;29;20452;-74
2021/06/11 06:24:01;;;;;;;21.27;16.65;;;20.30;80.40;;;;;;4956206;29;20062;-74
2021/06/11 06:26:27;;;;;;;21.55;15.98;;;20.40;80.00;;;;;;4955428;29;20035;-74
2021/06/11 06:28:54;;;;;;;24.10;16.15;;;20.50;79.70;;;;;;4938096;29;20037;-74
2021/06/11 06:31:20;;;;;;;21.40;14.68;;;20.50;79.80;;;;;;4938248;29;20020;-74
2021/06/11 06:33:46;;;;;;;19.80;15.10;;;20.70;79.10;;;;;;4956791;29;20032;-74
2021/06/11 06:36:12;;;;;;;18.60;14.82;;;20.80;78.50;;;;;;4940734;29;20086;-74
2021/06/11 06:38:37;;;;;;;22.80;15.07;;;20.80;78.60;;;;;;4953596;28;20028;-76
2021/06/11 06:41:05;;;;;;;23.85;15.98;;;21.00;78.00;;;;;;4958496;29;20091;-75
2021/06/11 06:43:32;;;;;;;20.20;13.75;;;21.00;77.20;;;;;;4958089;29;20097;-75
2021/06/11 06:45:58;;;;;;;18.63;13.10;;;21.10;76.90;;;;;;4956597;29;20515;-75
2021/06/11 06:48:23;;;;;;;18.13;13.00;;;21.10;76.80;;;;;;4937535;29;20035;-74
2021/06/11 06:50:49;;;;;;;18.85;15.13;;;21.20;76.20;;;;;;4955068;29;20449;-74
2021/06/11 06:53:18;;;;;;;23.70;14.82;;;21.20;76.20;;;;;;4954637;29;20023;-75
2021/06/11 06:55:44;;;;;;;20.40;13.13;;;21.20;76.20;;;;;;4955719;29;20035;-73
2021/06/11 06:58:09;;;;;;;19.83;13.68;;;21.30;75.80;;;;;;4955238;29;20055;-74
2021/06/11 07:00:35;;;;;;;20.42;13.00;;;21.50;76.00;;;;;;4955719;29;20465;-73
2021/06/11 07:03:01;;;;;;;20.35;14.60;;;21.50;75.10;;;;;;4954776;29;20388;-72
2021/06/11 07:05:27;;;;;;;20.85;14.27;;;21.60;74.30;;;;;;4955353;29;20070;-71
2021/06/11 07:07:53;;;;;;;21.77;14.82;;;21.70;74.40;;;;;;4954969;29;20031;-72
2021/06/11 07:10:18;;;;;;;21.92;14.98;;;21.70;73.80;;;;;;4955758;29;20038;-74
2021/06/11 07:12:44;;;;;;;23.75;14.80;;;21.80;73.10;;;;;;4938032;29;20031;-75
2021/06/11 07:15:10;;;;;;;23.55;15.65;;;21.80;73.10;;;;;;4956344;29;20393;-73
2021/06/11 07:17:40;;;;;;;19.05;14.45;;;21.80;72.80;;;;;;4955156;29;20113;-72
2021/06/11 07:20:06;;;;;;;19.95;14.68;;;21.80;73.10;;;;;;4955153;29;20338;-75
2021/06/11 07:22:32;;;;;;;22.02;14.65;;;21.90;71.60;;;;;;4957045;29;20056;-74
2021/06/11 07:25:05;;;;;;;25.33;18.88;;;22.10;72.60;;;;;;4957398;28;20035;-74
2021/06/11 07:27:32;;;;;;;26.05;19.15;;;22.20;72.50;;;;;;4969640;28;20034;-74
2021/06/11 07:30:04;;;;;;;25.23;19.13;;;22.20;71.90;;;;;;4955790;29;20020;-74
2021/06/11 07:32:30;;;;;;;26.55;20.55;;;22.20;72.10;;;;;;4940067;29;20031;-75
2021/06/11 07:34:56;;;;;;;22.92;19.02;;;22.40;72.00;;;;;;4940803;29;20031;-74
2021/06/11 07:37:21;;;;;;;31.50;20.38;;;22.60;71.30;;;;;;4953499;29;20058;-75
2021/06/11 07:39:47;;;;;;;24.45;18.70;;;22.70;70.10;;;;;;4937337;29;20434;-75
2021/06/11 07:42:14;;;;;;;27.60;20.20;;;22.70;70.80;;;;;;4955107;29;20024;-76
2021/06/11 07:44:40;;;;;;;27.08;19.25;;;22.80;70.30;;;;;;4947168;29;20024;-75
2021/06/11 07:47:06;;;;;;;25.45;20.13;;;22.80;70.10;;;;;;4944740;29;20082;-74
2021/06/11 07:49:32;;;;;;;25.63;19.50;;;22.80;70.20;;;;;;4954316;29;20024;-76
2021/06/11 07:51:58;;;;;;;26.10;19.48;;;22.80;70.40;;;;;;4956846;28;20030;-76
2021/06/11 07:54:24;;;;;;;24.92;18.55;;;22.90;69.30;;;;;;4957766;29;20471;-74
2021/06/11 07:56:49;;;;;;;27.95;19.45;;;22.80;69.10;;;;;;4957988;29;20078;-76
2021/06/11 07:59:20;;;;;;;27.00;18.92;;;22.80;69.00;;;;;;4922734;29;20047;-75
2021/06/11 08:01:45;;;;;;;22.83;18.08;;;22.80;69.00;;;;;;4938806;29;20062;-76
2021/06/11 08:04:11;;;;;;;24.95;16.50;;;22.90;69.40;;;;;;4938633;29;20059;-74
2021/06/11 08:06:37;;;;;;;20.17;15.45;;;23.00;69.40;;;;;;4938316;29;20027;-75
2021/06/11 08:09:03;;;;;;;21.17;15.90;;;23.20;68.90;;;;;;4938610;29;20078;-74
2021/06/11 08:11:29;;;;;;;22.55;17.17;;;23.20;68.70;;;;;;4938032;29;20528;-75
2021/06/11 08:13:54;;;;;;;25.00;18.80;;;23.30;67.70;;;;;;4921850;29;20118;-75
2021/06/11 08:16:20;;;;;;;18.15;13.80;;;23.30;67.70;;;;;;4939236;29;20024;-75
2021/06/11 08:18:46;;;;;;;20.17;15.80;;;23.20;68.00;;;;;;4939122;29;20040;-74
2021/06/11 08:21:14;;;;;;;20.20;14.27;;;23.30;67.50;;;;;;4938711;29;20039;-74
2021/06/11 08:23:40;;;;;;;16.45;12.75;;;23.40;67.90;;;;;;4939045;29;20401;-74
2021/06/11 08:26:06;;;;;;;17.42;13.45;;;23.60;67.00;;;;;;4939063;29;20465;-74
2021/06/11 08:28:32;;;;;;;19.20;14.07;;;23.70;66.20;;;;;;4940260;29;20036;-76
2021/06/11 08:30:57;;;;;;;19.13;14.65;;;23.80;66.50;;;;;;4937554;29;20111;-75
2021/06/11 08:33:23;;;;;;;16.50;13.20;;;24.00;66.20;;;;;;4923047;29;20106;-75
2021/06/11 08:35:49;;;;;;;18.38;12.48;;;24.10;65.50;;;;;;4939574;29;20381;-75
2021/06/11 08:38:14;;;;;;;20.33;15.02;;;24.30;65.40;;;;;;4947620;29;20086;-76
2021/06/11 08:40:40;;;;;;;18.55;13.07;;;24.50;64.00;;;;;;4949247;29;20016;-76
2021/06/11 08:43:06;;;;;;;18.35;14.68;;;24.60;62.90;;;;;;4943325;29;20134;-75
2021/06/11 08:45:33;;;;;;;19.17;14.82;;;24.60;63.40;;;;;;4941446;29;20027;-74
2021/06/11 08:47:58;;;;;;;19.05;13.88;;;24.70;62.90;;;;;;4938689;29;20095;-75
2021/06/11 08:50:33;;;;;;;15.18;10.98;;;24.70;62.40;;;;;;4938287;29;20106;-75
2021/06/11 08:53:00;;;;;;;19.90;13.45;;;24.80;62.30;;;;;;4921565;29;20019;-75
2021/06/11 08:55:26;;;;;;;20.90;14.10;;;24.80;62.90;;;;;;4938347;29;20031;-75
2021/06/11 08:57:52;;;;;;;17.58;12.95;;;24.90;64.00;;;;;;4926922;29;20047;-75
2021/06/11 09:00:20;;;;;;;22.13;16.55;;;25.00;61.80;;;;;;4939350;29;20161;-75
2021/06/11 09:03:18;;;;;;;20.70;15.63;;;25.10;61.30;;;;;;4955837;28;20415;-76
2021/06/11 09:06:02;;;;;;;17.42;13.20;;;25.20;62.30;;;;;;4939521;28;20106;-75
2021/06/11 09:08:28;;;;;;;22.02;17.17;;;25.20;61.20;;;;;;4956626;29;20034;-75
2021/06/11 09:11:13;;;;;;;21.20;14.15;;;25.20;61.50;;;;;;4956960;29;20043;-75
2021/06/11 09:13:42;;;;;;;19.77;14.50;;;25.00;61.80;;;;;;4956846;29;20024;-75
2021/06/11 09:16:18;;;;;;;22.10;16.90;;;25.10;62.70;;;;;;4938868;29;20023;-75
2021/06/11 09:18:48;;;;;;;27.02;20.02;;;25.30;62.20;;;;;;4939395;29;20513;-74
2021/06/11 09:21:45;;;;;;;22.52;17.35;;;25.50;62.10;;;;;;4941244;29;20124;-75
2021/06/11 09:26:57;;;;;;;23.50;17.73;;;25.90;60.80;;;;;;4956044;29;20046;-75
2021/06/11 09:29:25;;;;;;;22.52;16.70;;;26.10;59.50;;;;;;4938883;29;20030;-75
2021/06/11 09:31:51;;;;;;;21.40;16.17;;;26.20;60.20;;;;;;4956214;29;20042;-75
2021/06/11 09:34:22;;;;;;;21.33;15.93;;;26.30;59.30;;;;;;4956272;29;20468;-75
2021/06/11 09:37:01;;;;;;;20.40;16.20;;;26.40;59.10;;;;;;4956684;29;20035;-74
2021/06/11 09:39:46;;;;;;;18.67;15.17;;;26.50;58.20;;;;;;4939403;29;20023;-74
2021/06/11 09:42:14;;;;;;;17.75;15.35;;;26.60;58.00;;;;;;4957001;29;20027;-74
2021/06/11 09:44:40;;;;;;;19.60;15.15;;;26.60;57.10;;;;;;4940158;29;20034;-74
2021/06/11 09:47:06;;;;;;;18.70;13.25;;;26.40;57.90;;;;;;4959463;29;20030;-76
2021/06/11 09:49:44;;;;;;;19.85;14.63;;;26.50;58.00;;;;;;4968142;29;20031;-74
2021/06/11 09:52:14;;;;;;;17.33;12.50;;;26.60;57.30;;;;;;4957424;29;20027;-75
2021/06/11 09:54:39;;;;;;;14.35;9.65;;;26.60;58.10;;;;;;4957465;29;20032;-75
2021/06/11 09:57:28;;;;;;;18.45;14.23;;;26.70;57.20;;;;;;4956286;29;20031;-75
2021/06/11 09:59:53;;;;;;;15.07;9.10;;;26.70;56.70;;;;;;4957092;29;20035;-75
2021/06/11 10:02:22;;;;;;;21.92;15.40;;;26.50;57.20;;;;;;4955994;29;20023;-74
2021/06/11 10:04:48;;;;;;;20.38;15.20;;;26.60;57.70;;;;;;4958993;29;20464;-75
2021/06/11 10:07:14;;;;;;;16.20;11.93;;;26.80;57.50;;;;;;4958455;29;20063;-76
2021/06/11 10:09:41;;;;;;;15.27;11.00;;;27.10;56.30;;;;;;4956399;29;20023;-75
2021/06/11 10:12:08;;;;;;;16.20;10.27;;;27.30;55.80;;;;;;4957489;29;20106;-75
2021/06/11 10:14:34;;;;;;;11.57;7.97;;;27.50;55.30;;;;;;4938645;29;20055;-76
2021/06/11 10:17:00;;;;;;;16.15;13.13;;;27.70;54.20;;;;;;4956305;29;20062;-75
2021/06/11 10:19:27;;;;;;;14.68;12.60;;;27.70;54.10;;;;;;4955921;29;20031;-75
2021/06/11 10:21:53;;;;;;;15.20;11.63;;;27.90;54.90;;;;;;4956053;29;20024;-74
2021/06/11 10:24:22;;;;;;;15.35;11.57;;;28.00;54.00;;;;;;4955886;29;20365;-74
2021/06/11 10:26:49;;;;;;;17.35;13.70;;;28.10;55.30;;;;;;4955472;29;20480;-74
2021/06/11 10:29:17;;;;;;;17.67;14.77;;;28.30;53.30;;;;;;4956557;29;20026;-74
2021/06/11 10:31:43;;;;;;;21.92;15.10;;;28.30;54.20;;;;;;4955781;29;20109;-74
2021/06/11 10:34:09;;;;;;;16.08;13.23;;;28.40;54.30;;;;;;4955164;29;20027;-74
2021/06/11 10:36:43;;;;;;;18.42;13.10;;;28.60;53.80;;;;;;4954795;29;20063;-74
2021/06/11 10:39:09;;;;;;;14.10;10.25;;;28.80;52.90;;;;;;4956464;29;20030;-75
2021/06/11 10:41:52;;;;;;;15.55;11.88;;;29.10;53.40;;;;;;4964370;29;20023;-75
2021/06/11 10:44:37;;;;;;;17.65;11.80;;;28.80;52.00;;;;;;4962512;29;20030;-75
2021/06/11 10:47:18;;;;;;;14.82;10.20;;;28.70;51.90;;;;;;4971135;29;20038;-75
2021/06/11 10:49:59;;;;;;;12.48;10.23;;;28.90;52.20;;;;;;4958935;29;20035;-74
2021/06/11 10:52:31;;;;;;;14.50;10.90;;;29.00;51.10;;;;;;4954797;29;20070;-74
2021/06/11 10:55:17;;;;;;;15.15;11.43;;;29.00;52.20;;;;;;4954961;29;20436;-75
2021/06/11 10:57:45;;;;;;;17.38;11.10;;;28.90;51.40;;;;;;4954584;28;20097;-74
2021/06/11 11:00:23;;;;;;;17.30;13.23;;;28.90;51.30;;;;;;4954640;29;20090;-75
2021/06/11 11:02:57;;;;;;;15.00;12.25;;;28.80;52.10;;;;;;4954821;29;20030;-76
2021/06/11 11:05:35;;;;;;;14.70;10.70;;;28.80;51.20;;;;;;4954529;29;20115;-75
2021/06/11 11:08:05;;;;;;;11.98;9.73;;;28.80;51.70;;;;;;4955199;29;20115;-75
2021/06/11 11:10:36;;;;;;;15.70;12.93;;;29.10;50.90;;;;;;4955195;29;20058;-74
2021/06/11 11:13:05;;;;;;;12.98;11.15;;;29.40;50.10;;;;;;4957117;29;20019;-75
2021/06/11 11:15:32;;;;;;;13.55;11.45;;;29.30;51.40;;;;;;4939735;29;20077;-75
2021/06/11 11:17:59;;;;;;;16.63;12.23;;;29.10;52.20;;;;;;4955095;29;20078;-74
2021/06/11 11:20:30;;;;;;;14.13;11.15;;;29.00;51.70;;;;;;4954679;29;20484;-75
2021/06/11 11:23:01;;;;;;;12.35;9.27;;;29.10;52.10;;;;;;4955117;29;20090;-77
2021/06/11 11:25:28;;;;;;;13.55;11.20;;;29.40;52.80;;;;;;4954817;28;20087;-76
2021/06/11 11:27:55;;;;;;;13.82;9.70;;;29.20;50.60;;;;;;4937818;29;20098;-76
2021/06/11 11:30:26;;;;;;;13.32;10.77;;;29.20;51.90;;;;;;4954471;29;20027;-76
2021/06/11 11:32:56;;;;;;;10.90;8.20;;;29.30;51.30;;;;;;4954812;29;20119;-76
2021/06/11 11:35:25;;;;;;;14.32;10.25;;;29.50;52.10;;;;;;4937511;29;20062;-74
2021/06/11 11:37:52;;;;;;;15.77;12.23;;;29.80;50.90;;;;;;4937853;29;20031;-74
2021/06/11 11:40:19;;;;;;;12.35;9.93;;;29.90;49.90;;;;;;4937012;29;20042;-75
2021/06/11 11:42:45;;;;;;;14.45;11.30;;;30.00;49.60;;;;;;4937311;29;20054;-76
2021/06/11 11:45:11;;;;;;;7.53;4.78;;;29.70;49.70;;;;;;4954896;29;20032;-76
2021/06/11 11:47:37;;;;;;;14.57;10.25;;;29.70;53.30;;;;;;4937545;29;20036;-76
2021/06/11 11:50:04;;;;;;;16.63;11.98;;;29.80;51.70;;;;;;4961796;29;20031;-75
2021/06/11 11:52:32;;;;;;;9.38;7.30;;;29.70;49.10;;;;;;4957214;29;20028;-76
2021/06/11 11:54:59;;;;;;;10.80;8.45;;;29.70;50.20;;;;;;4937066;29;20362;-75
2021/06/11 11:57:25;;;;;;;11.80;8.10;;;29.90;50.70;;;;;;4936656;28;20146;-76
2021/06/11 11:59:50;;;;;;;11.13;8.15;;;30.00;51.20;;;;;;4954051;29;20448;-76
2021/06/11 12:02:16;;;;;;;8.05;5.20;;;30.00;49.60;;;;;;4954358;29;20112;-76
2021/06/11 12:04:42;;;;;;;10.98;8.98;;;30.00;51.90;;;;;;4936943;29;20412;-76
2021/06/11 12:07:07;;;;;;;11.43;8.80;;;29.80;48.70;;;;;;4954066;29;20031;-76
2021/06/11 12:09:33;;;;;;;11.65;8.25;;;29.60;49.40;;;;;;4952770;29;20028;-75
2021/06/11 12:11:59;;;;;;;14.05;11.20;;;29.60;50.20;;;;;;4937007;29;20059;-75
2021/06/11 12:14:24;;;;;;;14.48;10.68;;;29.60;48.90;;;;;;4952321;29;20491;-76
2021/06/11 12:16:53;;;;;;;10.60;8.65;;;29.50;49.40;;;;;;4952580;29;20388;-75
2021/06/11 12:19:18;;;;;;;12.68;9.73;;;29.30;49.70;;;;;;4954410;29;20043;-76
2021/06/11 12:21:44;;;;;;;13.18;10.15;;;29.40;49.40;;;;;;4953714;29;20032;-75
2021/06/11 12:24:10;;;;;;;14.10;9.50;;;29.50;48.70;;;;;;4937128;29;20028;-76
2021/06/11 12:26:36;;;;;;;12.13;9.13;;;29.50;48.10;;;;;;4936838;29;20123;-75
2021/06/11 12:29:02;;;;;;;7.50;4.88;;;29.40;49.40;;;;;;4953837;29;20027;-75
2021/06/11 12:31:32;;;;;;;7.93;5.88;;;29.30;49.30;;;;;;4936975;29;20038;-76
2021/06/11 12:33:58;;;;;;;12.45;9.30;;;29.20;50.20;;;;;;4954336;29;20019;-76
2021/06/11 12:36:24;;;;;;;11.85;9.55;;;29.50;48.30;;;;;;4952791;28;20027;-76
2021/06/11 12:38:49;;;;;;;12.05;10.13;;;29.40;47.50;;;;;;4957777;29;20078;-75